Time;durP1;ratioP1;P1;durP2;ratioP2;P2;SDS_P1;SDS_P2;PMS_P1;PMS_P2;Temp;Humidity;BMP_temperature;BMP_pressure;BME280_temperature;BME280_humidity;BME280_pressure;Samples;Min_cycle;Max_cycle;Signal;HPM_P1;HPM_P2
2022/07/07 00:01:50;;;;;;;;;;;21.70;49.70;;;;;;4997768;28;20447;-72
2022/07/07 00:04:17;;;;;;;;;;;21.60;49.60;;;;;;5002107;28;19940;-73
2022/07/07 00:06:43;;;;;;;;;;;21.60;49.90;;;;;;5000168;28;19937;-72
2022/07/07 00:09:10;;;;;;;;;;;21.60;49.70;;;;;;4996539;28;20639;-75
2022/07/07 00:11:36;;;;;;;;;;;21.60;49.80;;;;;;4997637;28;20009;-69
2022/07/07 00:14:07;;;;;;;;;;;21.50;49.80;;;;;;4998750;28;19951;-70
2022/07/07 00:16:33;;;;;;;;;;;21.50;49.90;;;;;;4998843;28;20354;-70
2022/07/07 00:19:01;;;;;;;;;;;21.50;50.00;;;;;;4999783;28;20695;-71
2022/07/07 00:21:28;;;;;;;;;;;21.40;50.00;;;;;;4999514;28;19930;-73
2022/07/07 00:23:54;;;;;;;;;;;21.40;50.00;;;;;;4999523;28;19929;-73
2022/07/07 00:26:21;;;;;;;;;;;21.40;50.00;;;;;;4995994;28;19933;-74
2022/07/07 00:28:48;;;;;;;;;;;21.30;50.10;;;;;;5000582;28;19944;-71
2022/07/07 00:31:17;;;;;;;;;;;21.30;50.30;;;;;;4995516;28;19937;-71
2022/07/07 00:33:43;;;;;;;;;;;21.30;50.20;;;;;;4999342;28;19929;-73
2022/07/07 00:36:10;;;;;;;;;;;21.30;50.30;;;;;;4998580;28;19925;-74
2022/07/07 00:38:37;;;;;;;;;;;21.30;50.40;;;;;;5000167;28;20013;-71
2022/07/07 00:41:03;;;;;;;;;;;21.30;50.50;;;;;;4997193;28;19936;-70
2022/07/07 00:43:35;;;;;;;;;;;21.20;50.50;;;;;;4998327;28;19926;-71
2022/07/07 00:46:02;;;;;;;;;;;21.20;50.60;;;;;;4998797;28;19968;-71
2022/07/07 00:48:32;;;;;;;;;;;21.20;50.70;;;;;;4997181;28;19936;-71
2022/07/07 00:50:59;;;;;;;;;;;21.20;50.60;;;;;;4999981;28;20408;-73
2022/07/07 00:53:25;;;;;;;;;;;21.10;50.60;;;;;;4999576;28;19933;-71
2022/07/07 00:55:52;;;;;;;;;;;21.10;50.80;;;;;;4998022;28;19929;-72
2022/07/07 00:58:19;;;;;;;;;;;21.10;50.80;;;;;;4997143;28;19933;-74
2022/07/07 01:00:45;;;;;;;;;;;21.10;50.80;;;;;;4998235;28;19936;-70
2022/07/07 01:03:12;;;;;;;;;;;21.10;50.80;;;;;;4998585;28;19933;-74
2022/07/07 01:05:41;;;;;;;;;;;21.00;50.80;;;;;;4998299;28;19934;-72
2022/07/07 01:08:10;;;;;;;;;;;21.00;50.90;;;;;;4995840;28;22433;-71
2022/07/07 01:10:37;;;;;;;;;;;21.00;50.90;;;;;;4997216;28;19989;-74
2022/07/07 01:13:04;;;;;;;;;;;21.00;51.00;;;;;;4997704;28;19937;-70
2022/07/07 01:15:31;;;;;;;;;;;20.90;51.00;;;;;;5000758;28;19979;-70
2022/07/07 01:17:58;;;;;;;;;;;20.90;51.00;;;;;;5000592;28;19936;-70
2022/07/07 01:20:26;;;;;;;;;;;20.90;51.20;;;;;;5004031;28;19936;-73
2022/07/07 01:22:54;;;;;;;;;;;20.90;51.10;;;;;;5001325;28;19929;-73
2022/07/07 01:25:21;;;;;;;;;;;20.80;51.10;;;;;;4999668;28;19961;-73
2022/07/07 01:27:48;;;;;;;;;;;20.80;51.20;;;;;;5002230;28;19933;-72
2022/07/07 01:30:14;;;;;;;;;;;20.80;51.20;;;;;;5000980;28;19945;-71
2022/07/07 01:32:41;;;;;;;;;;;20.80;51.30;;;;;;5001751;28;20357;-72
2022/07/07 01:35:11;;;;;;;;;;;20.70;51.40;;;;;;5001157;28;19941;-71
2022/07/07 01:37:37;;;;;;;;;;;20.70;51.50;;;;;;5002934;28;19941;-74
2022/07/07 01:40:06;;;;;;;;;;;20.70;51.60;;;;;;4997397;28;19941;-70
2022/07/07 01:42:33;;;;;;;;;;;20.70;51.70;;;;;;5003086;28;19929;-70
2022/07/07 01:44:59;;;;;;;;;;;20.70;51.70;;;;;;5002511;28;19955;-72
2022/07/07 01:47:26;;;;;;;;;;;20.60;51.70;;;;;;4999820;28;20461;-72
2022/07/07 01:49:52;;;;;;;;;;;20.60;51.90;;;;;;5000613;28;20430;-73
2022/07/07 01:52:19;;;;;;;;;;;20.60;52.00;;;;;;5001006;28;19936;-70
2022/07/07 01:54:46;;;;;;;;;;;20.60;52.10;;;;;;5001473;28;20043;-72
2022/07/07 01:57:15;;;;;;;;;;;20.50;52.20;;;;;;5000716;28;19929;-72
2022/07/07 01:59:41;;;;;;;;;;;20.50;52.30;;;;;;5000618;28;20320;-70
2022/07/07 02:02:08;;;;;;;;;;;20.50;52.40;;;;;;5000461;28;19937;-73
2022/07/07 02:04:34;;;;;;;;;;;20.50;52.60;;;;;;5001643;28;19930;-70
2022/07/07 02:07:01;;;;;;;;;;;20.40;52.60;;;;;;4998329;28;19929;-71
2022/07/07 02:09:28;;;;;;;;;;;20.40;52.80;;;;;;4998255;28;20841;-73
2022/07/07 02:11:54;;;;;;;;;;;20.30;52.70;;;;;;5001678;28;19929;-72
2022/07/07 02:14:22;;;;;;;;;;;20.30;52.80;;;;;;5000773;28;19938;-74
2022/07/07 02:16:49;;;;;;;;;;;20.30;52.80;;;;;;5002346;28;20092;-72
2022/07/07 02:19:15;;;;;;;;;;;20.30;53.00;;;;;;5001173;28;20700;-71
2022/07/07 02:21:42;;;;;;;;;;;20.30;53.00;;;;;;5000318;28;20630;-73
2022/07/07 02:24:09;;;;;;;;;;;20.20;53.10;;;;;;5002559;28;19933;-71
2022/07/07 02:26:35;;;;;;;;;;;20.20;53.10;;;;;;4999292;28;20390;-71
2022/07/07 02:29:02;;;;;;;;;;;20.20;53.30;;;;;;5002374;28;19932;-72
2022/07/07 02:31:30;;;;;;;;;;;20.20;53.40;;;;;;5002965;28;19953;-71
2022/07/07 02:33:56;;;;;;;;;;;20.20;53.50;;;;;;5000049;28;19941;-71
2022/07/07 02:36:23;;;;;;;;;;;20.10;53.40;;;;;;5000820;28;19930;-74
2022/07/07 02:38:50;;;;;;;;;;;20.10;53.50;;;;;;5002347;28;19925;-73
2022/07/07 02:41:17;;;;;;;;;;;20.10;53.50;;;;;;4999380;28;20372;-71
2022/07/07 02:43:43;;;;;;;;;;;20.10;53.70;;;;;;4999928;28;19929;-73
2022/07/07 02:46:10;;;;;;;;;;;20.00;53.70;;;;;;4999349;28;20796;-72
2022/07/07 02:48:38;;;;;;;;;;;20.00;53.70;;;;;;5000703;28;19929;-71
2022/07/07 02:51:05;;;;;;;;;;;20.00;53.70;;;;;;5000440;28;19929;-70
2022/07/07 02:53:33;;;;;;;;;;;20.00;53.80;;;;;;5001114;28;20069;-70
2022/07/07 02:56:01;;;;;;;;;;;19.90;53.70;;;;;;4999176;28;19937;-72
2022/07/07 02:58:27;;;;;;;;;;;19.90;53.80;;;;;;5000080;28;19933;-70
2022/07/07 03:00:54;;;;;;;;;;;19.90;53.80;;;;;;4995766;28;19929;-71
2022/07/07 03:03:21;;;;;;;;;;;19.90;53.90;;;;;;4999453;28;20390;-72
2022/07/07 03:05:49;;;;;;;;;;;19.80;53.90;;;;;;4999807;28;20744;-69
2022/07/07 03:08:15;;;;;;;;;;;19.80;53.80;;;;;;4999294;28;19937;-72
2022/07/07 03:10:42;;;;;;;;;;;19.80;53.80;;;;;;4998475;28;19940;-72
2022/07/07 03:13:09;;;;;;;;;;;19.80;53.90;;;;;;5000018;28;19941;-71
2022/07/07 03:15:35;;;;;;;;;;;19.80;53.90;;;;;;4999039;28;19933;-70
2022/07/07 03:18:02;;;;;;;;;;;19.70;53.90;;;;;;5000026;28;20408;-70
2022/07/07 03:20:29;;;;;;;;;;;19.70;53.90;;;;;;4992904;28;19933;-71
2022/07/07 03:22:56;;;;;;;;;;;19.70;54.10;;;;;;4994263;28;19929;-73
2022/07/07 03:25:23;;;;;;;;;;;19.70;54.00;;;;;;4999718;28;20279;-72
2022/07/07 03:27:50;;;;;;;;;;;19.60;53.90;;;;;;5000044;28;19937;-72
2022/07/07 03:30:16;;;;;;;;;;;19.60;54.10;;;;;;4997329;28;19929;-71
2022/07/07 03:32:43;;;;;;;;;;;19.60;54.20;;;;;;4998895;28;20302;-72
2022/07/07 03:35:09;;;;;;;;;;;19.60;54.00;;;;;;5000331;28;19941;-72
2022/07/07 03:37:36;;;;;;;;;;;19.60;54.10;;;;;;4999431;28;19937;-70
2022/07/07 03:40:05;;;;;;;;;;;19.60;54.00;;;;;;4999570;28;19937;-69
2022/07/07 03:42:31;;;;;;;;;;;19.50;53.90;;;;;;4999656;28;20295;-72
2022/07/07 03:44:58;;;;;;;;;;;19.50;53.90;;;;;;5000278;28;19940;-73
2022/07/07 03:47:25;;;;;;;;;;;19.50;53.70;;;;;;4998633;28;20424;-73
2022/07/07 03:49:51;;;;;;;;;;;19.50;53.80;;;;;;4999405;28;19929;-72
2022/07/07 03:52:18;;;;;;;;;;;19.50;53.60;;;;;;4999316;28;19941;-73
2022/07/07 03:54:44;;;;;;;;;;;19.40;53.80;;;;;;4999319;28;19940;-71
2022/07/07 03:57:12;;;;;;;;;;;19.40;53.60;;;;;;5001417;28;19933;-72
2022/07/07 03:59:39;;;;;;;;;;;19.40;53.70;;;;;;4997040;28;19929;-71
2022/07/07 04:02:05;;;;;;;;;;;19.40;53.80;;;;;;4999594;28;19929;-70
2022/07/07 04:04:32;;;;;;;;;;;19.30;53.80;;;;;;4998681;28;19949;-70
2022/07/07 04:06:58;;;;;;;;;;;19.30;53.80;;;;;;4996098;28;19929;-70
2022/07/07 04:09:25;;;;;;;;;;;19.40;53.80;;;;;;4997732;28;19936;-72
2022/07/07 04:11:51;;;;;;;;;;;19.30;53.80;;;;;;4999851;28;19929;-73
2022/07/07 04:14:19;;;;;;;;;;;19.30;53.90;;;;;;4999233;28;19941;-74
2022/07/07 04:16:46;;;;;;;;;;;19.30;53.70;;;;;;5000934;28;19935;-72
2022/07/07 04:19:12;;;;;;;;;;;19.20;53.70;;;;;;4999299;28;19933;-72
2022/07/07 04:21:39;;;;;;;;;;;19.30;54.00;;;;;;5001602;28;19933;-70
2022/07/07 04:24:06;;;;;;;;;;;19.20;53.60;;;;;;5000121;28;19930;-70
2022/07/07 04:26:32;;;;;;;;;;;19.20;53.90;;;;;;4998658;28;20413;-72
2022/07/07 04:28:59;;;;;;;;;;;19.20;53.80;;;;;;5000213;28;20382;-72
2022/07/07 04:31:27;;;;;;;;;;;19.20;53.30;;;;;;4999344;28;19933;-74
2022/07/07 04:33:53;;;;;;;;;;;19.10;53.40;;;;;;4999334;28;19940;-73
2022/07/07 04:36:20;;;;;;;;;;;19.10;53.60;;;;;;4998182;28;19984;-72
2022/07/07 04:38:46;;;;;;;;;;;19.10;53.60;;;;;;4999333;28;20667;-71
2022/07/07 04:41:13;;;;;;;;;;;19.10;53.80;;;;;;4999087;28;19940;-72
2022/07/07 04:43:39;;;;;;;;;;;19.10;54.10;;;;;;4998793;28;19934;-70
2022/07/07 04:46:06;;;;;;;;;;;19.10;53.50;;;;;;4999285;28;19929;-71
2022/07/07 04:48:34;;;;;;;;;;;19.10;54.00;;;;;;4998668;28;19944;-72
2022/07/07 04:51:00;;;;;;;;;;;19.10;53.80;;;;;;5003503;28;19930;-72
2022/07/07 04:53:27;;;;;;;;;;;19.10;53.80;;;;;;5002421;28;19944;-71
2022/07/07 04:55:53;;;;;;;;;;;19.00;53.70;;;;;;5001241;28;19929;-71
2022/07/07 04:58:20;;;;;;;;;;;19.00;53.80;;;;;;5002202;28;19933;-73
2022/07/07 05:00:46;;;;;;;;;;;19.00;53.70;;;;;;5001006;28;20385;-70
2022/07/07 05:03:13;;;;;;;;;;;19.00;53.90;;;;;;5003526;28;20448;-70
2022/07/07 05:05:41;;;;;;;;;;;19.00;53.70;;;;;;5000612;28;19940;-71
2022/07/07 05:08:08;;;;;;;;;;;19.00;54.10;;;;;;5001266;28;19934;-72
2022/07/07 05:10:34;;;;;;;;;;;19.00;53.80;;;;;;5001598;28;19929;-70
2022/07/07 05:13:01;;;;;;;;;;;19.00;54.00;;;;;;5003195;28;19929;-71
2022/07/07 05:15:27;;;;;;;;;;;19.00;53.80;;;;;;5000080;28;20602;-73
2022/07/07 05:17:54;;;;;;;;;;;19.00;54.00;;;;;;5001919;28;19936;-71
2022/07/07 05:20:20;;;;;;;;;;;18.90;54.10;;;;;;4999972;28;20449;-73
2022/07/07 05:22:48;;;;;;;;;;;19.00;54.20;;;;;;5002789;28;20605;-72
2022/07/07 05:25:15;;;;;;;;;;;19.00;54.20;;;;;;5001799;28;19930;-70
2022/07/07 05:27:44;;;;;;;;;;;19.00;54.30;;;;;;4999801;28;19929;-71
2022/07/07 05:30:11;;;;;;;;;;;19.00;54.30;;;;;;5000642;28;20012;-72
2022/07/07 05:32:38;;;;;;;;;;;18.90;54.40;;;;;;5001500;28;19934;-71
2022/07/07 05:35:05;;;;;;;;;;;19.00;53.60;;;;;;4999166;28;19940;-71
2022/07/07 05:37:31;;;;;;;;;;;18.90;54.00;;;;;;5000568;28;19936;-70
2022/07/07 05:39:59;;;;;;;;;;;18.90;54.20;;;;;;5000387;28;20048;-71
2022/07/07 05:42:26;;;;;;;;;;;18.90;54.50;;;;;;5001868;28;19929;-74
2022/07/07 05:44:53;;;;;;;;;;;18.90;53.90;;;;;;5003390;28;19957;-72
2022/07/07 05:47:19;;;;;;;;;;;18.80;54.40;;;;;;4996478;28;19936;-74
2022/07/07 05:49:46;;;;;;;;;;;18.80;54.90;;;;;;5000453;28;19936;-71
2022/07/07 05:52:12;;;;;;;;;;;18.80;54.90;;;;;;5002273;28;19936;-72
2022/07/07 05:54:39;;;;;;;;;;;18.80;54.80;;;;;;4999520;28;19934;-71
2022/07/07 05:57:07;;;;;;;;;;;18.80;55.30;;;;;;4999768;28;19941;-73
2022/07/07 05:59:34;;;;;;;;;;;18.80;55.30;;;;;;5002938;28;20313;-71
2022/07/07 06:02:00;;;;;;;;;;;18.70;55.40;;;;;;5001292;28;19941;-72
2022/07/07 06:04:27;;;;;;;;;;;18.70;55.00;;;;;;5000432;28;19937;-73
2022/07/07 06:06:54;;;;;;;;;;;18.80;54.60;;;;;;5000411;28;20401;-72
2022/07/07 06:09:20;;;;;;;;;;;18.80;55.10;;;;;;5001290;28;20251;-75
2022/07/07 06:11:47;;;;;;;;;;;18.70;55.60;;;;;;5001118;28;20318;-72
2022/07/07 06:14:15;;;;;;;;;;;18.80;55.00;;;;;;5003606;28;19937;-72
2022/07/07 06:16:42;;;;;;;;;;;18.80;54.40;;;;;;5001959;28;19928;-72
2022/07/07 06:19:09;;;;;;;;;;;18.80;54.80;;;;;;5001966;28;19952;-72
2022/07/07 06:21:36;;;;;;;;;;;18.80;54.70;;;;;;5003256;28;19976;-72
2022/07/07 06:24:02;;;;;;;;;;;18.80;54.80;;;;;;5002948;28;19955;-72
2022/07/07 06:26:29;;;;;;;;;;;18.80;54.40;;;;;;5000041;28;19933;-74
2022/07/07 06:28:55;;;;;;;;;;;18.80;54.80;;;;;;5003215;28;19933;-73
2022/07/07 06:31:23;;;;;;;;;;;18.80;55.00;;;;;;4996263;28;19952;-74
2022/07/07 06:33:50;;;;;;;;;;;18.80;55.10;;;;;;5000526;28;19933;-75
2022/07/07 06:36:16;;;;;;;;;;;18.80;55.30;;;;;;4999445;28;19937;-71
2022/07/07 06:38:43;;;;;;;;;;;18.90;55.40;;;;;;5000645;28;20301;-72
2022/07/07 06:41:10;;;;;;;;;;;19.00;55.50;;;;;;5004104;28;19934;-71
2022/07/07 06:43:36;;;;;;;;;;;19.00;55.60;;;;;;5001681;28;19936;-71
2022/07/07 06:46:03;;;;;;;;;;;19.00;55.30;;;;;;5000885;28;19937;-71
2022/07/07 06:48:31;;;;;;;;;;;19.10;55.20;;;;;;4999757;28;19941;-72
2022/07/07 06:50:57;;;;;;;;;;;19.10;55.20;;;;;;5001921;28;19937;-71
2022/07/07 06:53:24;;;;;;;;;;;19.20;55.20;;;;;;5000551;28;19940;-73
2022/07/07 06:55:51;;;;;;;;;;;19.20;55.00;;;;;;4999012;28;19979;-74
2022/07/07 06:58:17;;;;;;;;;;;19.30;55.00;;;;;;4997076;28;20692;-71
2022/07/07 07:00:44;;;;;;;;;;;19.30;55.00;;;;;;4994193;28;19941;-73
2022/07/07 07:03:11;;;;;;;;;;;19.30;54.90;;;;;;4991604;28;20424;-71
2022/07/07 07:05:39;;;;;;;;;;;19.30;54.80;;;;;;4991632;28;19940;-72
2022/07/07 07:08:06;;;;;;;;;;;19.40;54.90;;;;;;4997583;28;19934;-69
2022/07/07 07:10:32;;;;;;;;;;;19.40;54.80;;;;;;4997448;28;20317;-71
2022/07/07 07:12:59;;;;;;;;;;;19.40;54.70;;;;;;4999481;28;20625;-73
2022/07/07 07:15:25;;;;;;;;;;;19.40;54.80;;;;;;4996829;28;20263;-73
2022/07/07 07:17:52;;;;;;;;;;;19.50;54.90;;;;;;4989854;28;19937;-69
2022/07/07 07:20:18;;;;;;;;;;;19.50;54.90;;;;;;4994404;28;19929;-73
2022/07/07 07:22:46;;;;;;;;;;;19.50;54.90;;;;;;5000181;28;19930;-72
2022/07/07 07:25:15;;;;;;;;;;;19.50;54.90;;;;;;4999178;28;19929;-71
2022/07/07 07:27:42;;;;;;;;;;;19.50;54.90;;;;;;4999763;28;19988;-70
2022/07/07 07:30:09;;;;;;;;;;;19.50;54.90;;;;;;4997795;28;19965;-72
2022/07/07 07:32:35;;;;;;;;;;;19.60;54.90;;;;;;5001005;28;20044;-70
2022/07/07 07:35:02;;;;;;;;;;;19.60;54.90;;;;;;4999103;28;19937;-72
2022/07/07 07:37:29;;;;;;;;;;;19.60;54.90;;;;;;5000443;28;19972;-71
2022/07/07 07:39:56;;;;;;;;;;;19.60;54.90;;;;;;4994928;28;19925;-73
2022/07/07 07:42:23;;;;;;;;;;;19.60;55.00;;;;;;4995560;28;20416;-70
2022/07/07 07:47:34;;;;;;;;;;;19.70;55.10;;;;;;4998965;28;20731;-72
2022/07/07 07:50:00;;;;;;;;;;;19.70;55.30;;;;;;4999115;28;20298;-73
2022/07/07 07:52:27;;;;;;;;;;;19.70;55.10;;;;;;4997456;28;19929;-76
2022/07/07 07:54:53;;;;;;;;;;;19.70;55.10;;;;;;4992550;28;19937;-76
2022/07/07 07:57:21;;;;;;;;;;;19.70;55.20;;;;;;4998060;28;19929;-75
2022/07/07 07:59:48;;;;;;;;;;;19.70;55.20;;;;;;4998720;28;19929;-76
2022/07/07 08:02:15;;;;;;;;;;;19.70;55.20;;;;;;4998006;28;19968;-75
2022/07/07 08:04:41;;;;;;;;;;;19.70;55.10;;;;;;4998096;28;19933;-74
2022/07/07 08:07:08;;;;;;;;;;;19.70;55.20;;;;;;4999120;28;19934;-77
2022/07/07 08:09:34;;;;;;;;;;;19.80;55.20;;;;;;4994327;28;19929;-75
2022/07/07 08:12:01;;;;;;;;;;;19.70;55.40;;;;;;4996564;28;19941;-76
2022/07/07 08:14:29;;;;;;;;;;;19.70;55.30;;;;;;4996528;28;19926;-79
2022/07/07 08:16:55;;;;;;;;;;;19.70;55.40;;;;;;4997523;28;19930;-79
2022/07/07 08:19:22;;;;;;;;;;;19.80;55.40;;;;;;4999138;28;19941;-78
2022/07/07 08:21:48;;;;;;;;;;;19.80;55.60;;;;;;5000972;28;19929;-74
2022/07/07 08:24:15;;;;;;;;;;;19.80;55.70;;;;;;4997878;28;19936;-78
2022/07/07 08:26:42;;;;;;;;;;;19.80;55.70;;;;;;4996946;28;19937;-75
2022/07/07 08:29:08;;;;;;;;;;;19.80;55.80;;;;;;4999361;28;19983;-76
2022/07/07 08:31:36;;;;;;;;;;;19.80;56.00;;;;;;5000993;28;19922;-74
2022/07/07 08:34:03;;;;;;;;;;;19.80;56.00;;;;;;5002629;28;19936;-76
2022/07/07 08:36:30;;;;;;;;;;;19.80;56.10;;;;;;5005370;28;19929;-75
2022/07/07 08:38:57;;;;;;;;;;;19.80;56.20;;;;;;5002055;28;19925;-76
2022/07/07 08:41:24;;;;;;;;;;;19.80;56.20;;;;;;5005377;28;19929;-76
2022/07/07 08:43:50;;;;;;;;;;;19.80;56.10;;;;;;4997904;28;19936;-71
2022/07/07 08:46:17;;;;;;;;;;;19.90;56.20;;;;;;5000837;28;19933;-73
2022/07/07 08:48:45;;;;;;;;;;;19.90;56.30;;;;;;5000938;28;19934;-75
2022/07/07 08:51:12;;;;;;;;;;;19.90;56.30;;;;;;5001415;28;19933;-74
2022/07/07 08:53:39;;;;;;;;;;;19.90;56.40;;;;;;5003132;28;19929;-72
2022/07/07 08:56:06;;;;;;;;;;;19.90;56.30;;;;;;5004469;28;20576;-64
2022/07/07 08:58:35;;;;;;;;;;;19.90;56.50;;;;;;5004068;28;19934;-66
2022/07/07 09:01:02;;;;;;;;;;;20.00;56.70;;;;;;5004588;28;19934;-65
2022/07/07 09:03:28;;;;;;;;;;;20.00;56.70;;;;;;5004339;28;19929;-68
2022/07/07 09:05:56;;;;;;;;;;;20.10;56.80;;;;;;5003564;28;19929;-67
2022/07/07 09:08:24;;;;;;;;;;;20.10;56.70;;;;;;5001811;28;19932;-68
2022/07/07 09:10:51;;;;;;;;;;;20.10;56.70;;;;;;5000551;28;19966;-67
2022/07/07 09:13:22;;;;;;;;;;;20.20;56.70;;;;;;5001380;28;19955;-67
2022/07/07 09:15:49;;;;;;;;;;;20.20;56.70;;;;;;5003770;28;19930;-69
2022/07/07 09:18:27;;;;;;;;;;;20.20;56.90;;;;;;5001201;28;19965;-68
2022/07/07 09:20:54;;;;;;;;;;;20.20;56.90;;;;;;5002198;28;19933;-70
2022/07/07 09:23:22;;;;;;;;;;;20.30;57.00;;;;;;4999805;28;19960;-66
2022/07/07 09:25:48;;;;;;;;;;;20.30;57.00;;;;;;4998906;28;19937;-67
2022/07/07 09:28:15;;;;;;;;;;;20.30;57.00;;;;;;5001241;28;20381;-75
2022/07/07 09:30:43;;;;;;;;;;;20.40;57.00;;;;;;5004157;28;19975;-73
2022/07/07 09:33:10;;;;;;;;;;;20.40;57.00;;;;;;4997651;28;19935;-72
2022/07/07 09:38:23;;;;;;;;;;;20.50;56.90;;;;;;5000891;28;20099;-73
2022/07/07 09:40:51;;;;;;;;;;;20.50;57.00;;;;;;4999095;28;19926;-73
2022/07/07 09:43:18;;;;;;;;;;;20.60;57.10;;;;;;4999947;28;20126;-75
2022/07/07 09:45:46;;;;;;;;;;;20.60;57.10;;;;;;5002027;28;19933;-75
2022/07/07 09:48:13;;;;;;;;;;;20.60;57.00;;;;;;4999059;28;20394;-77
2022/07/07 09:50:40;;;;;;;;;;;20.70;57.10;;;;;;5003830;28;20365;-73
2022/07/07 09:53:07;;;;;;;;;;;20.70;57.20;;;;;;5002390;28;21219;-69
2022/07/07 09:55:35;;;;;;;;;;;20.70;57.20;;;;;;5001442;28;20571;-69
2022/07/07 09:58:01;;;;;;;;;;;20.70;57.10;;;;;;5000671;28;19933;-69
2022/07/07 10:00:28;;;;;;;;;;;20.80;57.20;;;;;;5002368;28;19937;-70
2022/07/07 10:02:55;;;;;;;;;;;20.80;57.20;;;;;;5004153;28;20017;-73
2022/07/07 10:05:23;;;;;;;;;;;20.80;57.30;;;;;;4998959;28;20529;-70
2022/07/07 10:07:50;;;;;;;;;;;20.80;57.40;;;;;;5004029;28;19933;-72
2022/07/07 10:10:20;;;;;;;;;;;20.80;57.30;;;;;;4998993;28;19940;-72
2022/07/07 10:12:53;;;;;;;;;;;20.90;57.50;;;;;;5003270;28;19936;-70
2022/07/07 10:15:20;;;;;;;;;;;20.90;57.50;;;;;;5001038;28;19929;-72
2022/07/07 10:17:47;;;;;;;;;;;20.90;57.40;;;;;;5001808;28;19929;-70
2022/07/07 10:20:14;;;;;;;;;;;20.90;57.50;;;;;;5001547;28;19925;-73
2022/07/07 10:22:41;;;;;;;;;;;20.90;57.50;;;;;;5008198;28;19930;-73
2022/07/07 10:25:08;;;;;;;;;;;20.90;57.50;;;;;;5005973;28;19956;-76
2022/07/07 10:27:35;;;;;;;;;;;21.00;58.10;;;;;;5008247;28;19929;-71
2022/07/07 10:30:05;;;;;;;;;;;21.00;57.60;;;;;;5006531;28;20555;-71
2022/07/07 10:32:32;;;;;;;;;;;21.00;57.60;;;;;;5007377;28;19933;-71
2022/07/07 10:34:59;;;;;;;;;;;21.00;57.70;;;;;;5001798;28;19941;-72
2022/07/07 10:37:27;;;;;;;;;;;21.00;57.70;;;;;;5007149;28;19932;-72
2022/07/07 10:39:54;;;;;;;;;;;21.00;57.70;;;;;;5003323;28;19940;-70
2022/07/07 10:42:35;;;;;;;;;;;21.00;57.70;;;;;;5004738;28;19964;-74
2022/07/07 10:45:01;;;;;;;;;;;21.10;57.80;;;;;;5003900;28;20386;-73
2022/07/07 10:47:31;;;;;;;;;;;21.10;57.80;;;;;;5004815;28;19937;-72
2022/07/07 10:49:58;;;;;;;;;;;21.10;57.90;;;;;;5007020;28;19976;-73
2022/07/07 10:52:27;;;;;;;;;;;21.10;58.00;;;;;;5001407;28;21331;-73
2022/07/07 10:54:54;;;;;;;;;;;21.10;58.20;;;;;;5005175;28;19930;-75
2022/07/07 10:57:22;;;;;;;;;;;21.10;58.10;;;;;;5007187;28;20026;-73
2022/07/07 11:00:06;;;;;;;;;;;21.20;58.10;;;;;;4996890;28;19929;-74
2022/07/07 11:02:34;;;;;;;;;;;21.20;58.40;;;;;;4997482;28;19929;-73
2022/07/07 11:05:02;;;;;;;;;;;21.20;58.30;;;;;;4997267;28;19929;-75
2022/07/07 11:07:29;;;;;;;;;;;21.30;58.30;;;;;;4999962;28;19929;-75
2022/07/07 11:09:56;;;;;;;;;;;21.30;58.30;;;;;;4998636;28;20036;-75
2022/07/07 11:12:36;;;;;;;;;;;21.30;58.10;;;;;;5001807;28;20024;-72
2022/07/07 11:15:21;;;;;;;;;;;21.40;58.30;;;;;;5001416;28;19929;-73
2022/07/07 11:17:50;;;;;;;;;;;21.40;58.30;;;;;;4998119;28;19929;-75
2022/07/07 11:20:17;;;;;;;;;;;21.40;58.30;;;;;;4995113;28;19992;-76
2022/07/07 11:22:44;;;;;;;;;;;21.40;58.20;;;;;;4999902;28;20425;-76
2022/07/07 11:25:11;;;;;;;;;;;21.50;58.20;;;;;;5000316;28;19987;-73
2022/07/07 11:27:38;;;;;;;;;;;21.40;58.10;;;;;;5002574;28;19937;-77
2022/07/07 11:30:05;;;;;;;;;;;21.40;58.00;;;;;;5000986;28;19929;-73
2022/07/07 11:32:36;;;;;;;;;;;21.50;58.20;;;;;;5000136;28;19934;-74
2022/07/07 11:35:06;;;;;;;;;;;21.50;58.20;;;;;;4996062;28;19968;-73
2022/07/07 11:37:33;;;;;;;;;;;21.50;58.20;;;;;;5002489;28;20411;-74
2022/07/07 11:39:59;;;;;;;;;;;21.50;58.20;;;;;;4999833;28;19972;-75
2022/07/07 11:42:26;;;;;;;;;;;21.50;58.30;;;;;;4994957;28;19936;-75
2022/07/07 11:44:53;;;;;;;;;;;21.50;58.30;;;;;;4997683;28;20410;-74
2022/07/07 11:47:20;;;;;;;;;;;21.50;58.30;;;;;;5000127;28;19936;-72
2022/07/07 11:49:46;;;;;;;;;;;21.50;58.40;;;;;;5000144;28;19937;-72
2022/07/07 11:52:16;;;;;;;;;;;21.50;58.30;;;;;;4996904;28;19930;-71
2022/07/07 11:54:47;;;;;;;;;;;21.50;58.40;;;;;;4993261;28;19933;-74
2022/07/07 11:57:25;;;;;;;;;;;21.50;58.30;;;;;;4998540;28;19934;-80
2022/07/07 11:59:52;;;;;;;;;;;21.60;58.40;;;;;;4997494;28;19936;-76
2022/07/07 12:02:19;;;;;;;;;;;21.60;58.40;;;;;;4999236;28;19956;-78
2022/07/07 12:04:45;;;;;;;;;;;21.60;58.60;;;;;;4999196;28;19930;-79
2022/07/07 12:07:12;;;;;;;;;;;21.60;58.50;;;;;;4999971;28;19934;-77
2022/07/07 12:09:45;;;;;;;;;;;21.70;58.40;;;;;;4999526;28;19936;-77
2022/07/07 12:12:16;;;;;;;;;;;21.70;58.30;;;;;;4995132;28;19921;-76
2022/07/07 12:14:43;;;;;;;;;;;21.70;58.20;;;;;;4990873;28;19929;-75
2022/07/07 12:17:10;;;;;;;;;;;21.80;58.20;;;;;;4995168;28;19930;-75
2022/07/07 12:19:45;;;;;;;;;;;21.70;58.00;;;;;;5001164;28;19934;-77
2022/07/07 12:22:12;;;;;;;;;;;21.70;58.00;;;;;;5002088;28;19933;-75
2022/07/07 12:24:38;;;;;;;;;;;21.80;58.00;;;;;;4996982;28;19929;-76
2022/07/07 12:27:15;;;;;;;;;;;21.80;57.90;;;;;;4999209;28;19925;-73
2022/07/07 12:29:57;;;;;;;;;;;21.90;58.00;;;;;;4997023;28;19929;-76
2022/07/07 12:32:24;;;;;;;;;;;21.90;58.00;;;;;;4995787;28;19933;-73
2022/07/07 12:34:50;;;;;;;;;;;21.90;57.90;;;;;;5002230;28;19929;-75
2022/07/07 12:37:17;;;;;;;;;;;21.90;57.80;;;;;;5001859;28;19941;-72
2022/07/07 12:39:44;;;;;;;;;;;22.00;57.80;;;;;;4998127;28;19933;-77
2022/07/07 12:42:23;;;;;;;;;;;21.90;57.80;;;;;;5000809;28;20020;-77
2022/07/07 12:44:50;;;;;;;;;;;22.00;57.80;;;;;;4998393;28;20628;-75
2022/07/07 12:47:16;;;;;;;;;;;22.00;57.70;;;;;;4994862;28;19954;-73
2022/07/07 12:49:52;;;;;;;;;;;22.00;57.70;;;;;;4998592;28;19940;-75
2022/07/07 12:52:19;;;;;;;;;;;22.00;57.80;;;;;;4999276;28;19929;-74
2022/07/07 12:54:45;;;;;;;;;;;22.10;58.30;;;;;;4996824;28;19944;-76
2022/07/07 12:57:13;;;;;;;;;;;22.10;58.50;;;;;;4996839;28;19929;-76
2022/07/07 12:59:40;;;;;;;;;;;22.10;58.90;;;;;;4997772;28;19937;-76
2022/07/07 13:02:07;;;;;;;;;;;22.10;59.40;;;;;;4997452;28;20349;-75
2022/07/07 13:04:34;;;;;;;;;;;22.10;59.50;;;;;;4999097;28;20737;-73
2022/07/07 13:07:01;;;;;;;;;;;22.10;59.70;;;;;;4997256;28;19926;-75
2022/07/07 13:09:27;;;;;;;;;;;22.10;59.60;;;;;;4998364;28;21917;-74
2022/07/07 13:11:54;;;;;;;;;;;22.10;59.70;;;;;;5001801;28;19929;-78
2022/07/07 13:14:22;;;;;;;;;;;22.10;60.10;;;;;;5004656;28;19934;-74
2022/07/07 13:16:48;;;;;;;;;;;22.10;60.10;;;;;;5001808;28;19930;-74
2022/07/07 13:19:15;;;;;;;;;;;22.10;59.80;;;;;;5001814;28;19937;-77
2022/07/07 13:21:42;;;;;;;;;;;22.10;59.80;;;;;;5002872;28;20004;-76
2022/07/07 13:24:09;;;;;;;;;;;22.10;59.70;;;;;;4999837;28;20388;-77
2022/07/07 13:26:35;;;;;;;;;;;22.00;59.30;;;;;;4996872;28;19936;-73
2022/07/07 13:29:02;;;;;;;;;;;22.10;59.30;;;;;;5000837;28;19933;-78
2022/07/07 13:31:30;;;;;;;;;;;22.10;58.80;;;;;;4999605;28;20664;-75
2022/07/07 13:33:57;;;;;;;;;;;22.10;58.60;;;;;;4999503;28;19929;-76
2022/07/07 13:36:23;;;;;;;;;;;22.20;58.40;;;;;;5001947;28;19933;-73
2022/07/07 13:38:50;;;;;;;;;;;22.20;58.70;;;;;;5000858;28;20299;-67
2022/07/07 13:41:16;;;;;;;;;;;22.20;58.70;;;;;;4997486;28;19941;-68
2022/07/07 13:43:46;;;;;;;;;;;22.20;58.50;;;;;;4999580;28;19933;-72
2022/07/07 13:46:13;;;;;;;;;;;22.30;58.30;;;;;;5001515;28;19933;-71
2022/07/07 13:48:40;;;;;;;;;;;22.30;58.20;;;;;;5008656;28;19929;-68
2022/07/07 13:51:07;;;;;;;;;;;22.30;58.10;;;;;;5000216;28;19940;-69
2022/07/07 13:53:34;;;;;;;;;;;22.30;57.60;;;;;;5001256;28;19930;-69
2022/07/07 13:56:00;;;;;;;;;;;22.30;57.50;;;;;;5001866;28;20437;-71
2022/07/07 13:58:27;;;;;;;;;;;22.30;57.50;;;;;;5002303;28;19929;-68
2022/07/07 14:00:53;;;;;;;;;;;22.30;57.40;;;;;;5002256;28;19929;-71
2022/07/07 14:03:21;;;;;;;;;;;22.30;57.30;;;;;;5003486;28;19929;-70
2022/07/07 14:05:49;;;;;;;;;;;22.30;57.20;;;;;;5002480;28;19929;-68
2022/07/07 14:08:15;;;;;;;;;;;22.30;57.20;;;;;;5001729;28;19930;-68
2022/07/07 14:10:42;;;;;;;;;;;22.30;57.20;;;;;;5000719;28;19933;-71
2022/07/07 14:13:08;;;;;;;;;;;22.30;57.00;;;;;;5001081;28;20513;-69
2022/07/07 14:15:35;;;;;;;;;;;22.30;57.10;;;;;;4996708;28;19977;-68
2022/07/07 14:18:02;;;;;;;;;;;22.30;57.20;;;;;;4998895;28;19930;-68
2022/07/07 14:20:28;;;;;;;;;;;22.30;57.10;;;;;;4999032;28;20263;-70
2022/07/07 14:22:56;;;;;;;;;;;22.30;57.30;;;;;;5001707;28;20405;-68